Airfield :
LOGIN :

Register | Disclaimer

   EN    FR    IT 

 










Legend :    VFR   Marginal VFR   IFR   Intensive IFR   Very Intensive IFR
Visi :
Ceiling :
>= 8 km
>= 3000ft
5 to 8 km
1000 to 3000 ft
1500m to 5 km
500 to 1000 ft
800 to 1500m
200 to 500 ft
< 800m
< 200 ft
Symbols :   Thunderstorms  Fog  Heavy snow  Heavy precipitations  Wind > 20 kt
SIGMETs :     Misc.  Thunderstorms  Icing  Turbulence  Mountain Waves  Volcanic Ashes







- Airport Elevation : 1411 ft
- IATA code : GVA


LSGG - Genève Cointrin

CURRENT METAR :
  • 131920Z VRB01KT 9999 FEW030 BKN045 01/M04 Q1011 NOSIG

EXPIRED METARs :
  • 131850Z VRB02KT 9999 FEW030 BKN050 01/M04 Q1011 NOSIG
  • 131820Z VRB01KT 9999 VCSH FEW020 SCT030 BKN050 02/M05 Q1011 NOSIG
  • 131750Z VRB02KT 9999 VCSH FEW020 SCT030 BKN050 02/M05 Q1011 NOSIG
  • 131720Z VRB01KT 9999 VCSH FEW020 SCT030 BKN050 02/M06 Q1011 NOSIG
  • 131650Z VRB02KT 9999 VCSH FEW020 SCT030 BKN050 01/M05 Q1011 NOSIG

TAF TAF LSGG
Valid from the 13 at 18:00 until the 15 at 00:00 UTC


131725Z 1318/1424 VRB03KT 9999 FEW015 SCT030 BKN050 TX02/1414Z TNM01/1406Z
ATIS : +41 22 417 40 81
No reported NOTAMs for that airfield.



MET'MAP, your aeronautical weather chart ! - Copyright ORBIFLY December 2007 - Disclaimer

ORBIFLY MET'MAP TEAM :

Programming & Development : Alexandra Zaïnal
Concept & Development : Baudouin d'Aumeries
Co-Development & Prog : Marc-Olivier Méhu
Technical & hardware support : Manuel Goepfert

Contact : metmap@orbifly.com




SOURCES & CREDITS :

   NOAA